Darstellungsparameter: Aktuell verwendete Einstellungen:
Skalierung der Graphiken ... ?
xyx+y,   Skalierungsfaktor:      Skalierung: Modus: x, Faktor: 1
Darstellungszeitraum ... ?
Vom - - bis: - -   Zeitraum: 16.05.2022 - 16.05.2022
Min/Max/Avg-Anzeige ... ?
Zeige MMA aktuell
Zeige MMA Monat
Zeige MMA alles
Zeige --A aktuell
Zeige --A Monat
Zeige --A alles
Keine MMA-Anzeige
MMA:
Keine MMA-Graphiken
MMA-Basis: 16.05.2022 - 16.05.2022
Quicknavigation für Darstellung... ?
Tage:      1T, 2T, 3T, 5T -1T -2T -3T -5T +1T +2T +3T +5T
Wochen: 1W, 2W, 3W -1W -2W -3W +1W +2W +3W
Monate: 1M, 3M, 6M -1M -3M -6M +1M +3M +6M
Jahre:    1J, 3J, 5J, 10J -1J -3J -5J -10J +1J +3J +5J +10J
Nutze für die Darstellung ... ?
Originaldaten oder Mittelwerte auf ...
Stundenbasis Tagesbasis Wochenbasis
Monatsbasis Jahresbasis      Datenbasis: Original-Daten
Darstellen als:
Statistik (Auto) Statistik J:M      Darstellung:

Der gewünschte Datumsbereich war nicht gültig/verfügbar und wurde korrigiert....
Das angegebene Enddatum (06.09.2028 23:59:59) liegt in der Zukunft.
Das angegebene Startdatum (06.09.2028 00:00:00) liegt in der Zukunft.


Zur Graphik,    zurück zur Übersicht aller Sensoren.
 
Tabellarische Datenbersicht: ?
 
Sensor: Nr:Datum:Temp:Feuchte:Taupunkt:
Aussen-T/F 1 16-05-2022 02:00:00 12.7 C 84 % 10.07 C
2 16-05-2022 02:05:00 12.7 C 84 % 10.07 C
3 16-05-2022 02:10:00 12.6 C 84 % 9.97 C
4 16-05-2022 02:15:00 12.6 C 84 % 9.97 C
5 16-05-2022 02:20:00 12.5 C 84 % 9.87 C
6 16-05-2022 02:25:00 12.4 C 85 % 9.95 C
7 16-05-2022 02:30:00 12.4 C 85 % 9.95 C
8 16-05-2022 02:35:00 12.3 C 85 % 9.85 C
9 16-05-2022 02:40:00 12.3 C 85 % 9.85 C
10 16-05-2022 02:45:00 12.2 C 85 % 9.76 C
11 16-05-2022 02:50:00 12.2 C 86 % 9.93 C
12 16-05-2022 02:55:00 12.1 C 86 % 9.83 C
13 16-05-2022 03:00:00 12 C 86 % 9.73 C
14 16-05-2022 03:05:00 11.9 C 86 % 9.64 C
15 16-05-2022 03:10:00 11.9 C 86 % 9.64 C
16 16-05-2022 03:15:00 11.8 C 87 % 9.71 C
17 16-05-2022 03:20:00 11.8 C 87 % 9.71 C
18 16-05-2022 03:25:00 11.8 C 87 % 9.71 C
19 16-05-2022 03:30:00 11.8 C 88 % 9.88 C
20 16-05-2022 03:35:00 11.8 C 88 % 9.88 C
21 16-05-2022 03:40:00 11.8 C 88 % 9.88 C
22 16-05-2022 03:45:00 11.8 C 89 % 10.05 C
23 16-05-2022 03:50:00 11.8 C 89 % 10.05 C
24 16-05-2022 03:55:00 11.8 C 89 % 10.05 C
25 16-05-2022 04:00:00 11.8 C 89 % 10.05 C
Sensor: Nr:Datum:Temp:Feuchte:Taupunkt:
Aussen-T/F 26 16-05-2022 04:05:00 11.8 C 89 % 10.05 C
27 16-05-2022 04:10:00 11.8 C 89 % 10.05 C
28 16-05-2022 04:15:00 11.8 C 89 % 10.05 C
29 16-05-2022 04:20:00 11.8 C 89 % 10.05 C
30 16-05-2022 04:25:00 11.8 C 89 % 10.05 C
31 16-05-2022 04:30:00 11.8 C 89 % 10.05 C
32 16-05-2022 04:35:00 11.8 C 89 % 10.05 C
33 16-05-2022 04:40:00 11.8 C 89 % 10.05 C
34 16-05-2022 04:45:00 11.8 C 89 % 10.05 C
35 16-05-2022 04:50:00 11.8 C 90 % 10.21 C
36 16-05-2022 04:55:00 11.9 C 90 % 10.31 C
37 16-05-2022 05:00:00 11.9 C 90 % 10.31 C
38 16-05-2022 05:05:00 11.9 C 90 % 10.31 C
39 16-05-2022 05:10:00 11.9 C 90 % 10.31 C
40 16-05-2022 05:15:00 11.9 C 90 % 10.31 C
41 16-05-2022 05:20:00 11.9 C 90 % 10.31 C
42 16-05-2022 05:25:00 12 C 90 % 10.41 C
43 16-05-2022 05:30:00 12.1 C 90 % 10.51 C
44 16-05-2022 05:35:00 12.1 C 90 % 10.51 C
45 16-05-2022 05:40:00 12.1 C 90 % 10.51 C
46 16-05-2022 05:45:00 12.1 C 90 % 10.51 C
47 16-05-2022 05:50:00 12.2 C 90 % 10.61 C
48 16-05-2022 05:55:00 12.2 C 90 % 10.61 C
49 16-05-2022 06:00:00 12.2 C 90 % 10.61 C
50 16-05-2022 06:05:00 12.3 C 90 % 10.71 C
Sensor: Nr:Datum:Temp:Feuchte:Taupunkt:
Aussen-T/F 51 16-05-2022 06:10:00 12.4 C 91 % 10.97 C
52 16-05-2022 06:15:00 12.4 C 91 % 10.97 C
53 16-05-2022 06:20:00 12.6 C 91 % 11.17 C
54 16-05-2022 06:25:00 12.6 C 91 % 11.17 C
55 16-05-2022 06:30:00 12.8 C 91 % 11.37 C
56 16-05-2022 06:35:00 12.9 C 91 % 11.47 C
57 16-05-2022 06:40:00 13 C 91 % 11.57 C
58 16-05-2022 06:45:00 13.1 C 91 % 11.67 C
59 16-05-2022 06:50:00 13.2 C 91 % 11.76 C
60 16-05-2022 06:55:00 13.3 C 91 % 11.86 C
61 16-05-2022 07:00:00 13.4 C 91 % 11.96 C
62 16-05-2022 07:05:00 13.5 C 91 % 12.06 C
63 16-05-2022 07:10:00 13.6 C 90 % 11.99 C
64 16-05-2022 07:15:00 13.7 C 91 % 12.26 C
65 16-05-2022 07:20:00 13.8 C 91 % 12.36 C
66 16-05-2022 07:25:00 13.8 C 90 % 12.19 C
67 16-05-2022 07:30:00 13.9 C 91 % 12.46 C
68 16-05-2022 07:35:00 14.1 C 91 % 12.65 C
69 16-05-2022 07:40:00 14.2 C 91 % 12.75 C
70 16-05-2022 07:45:00 14.2 C 89 % 12.41 C
71 16-05-2022 07:50:00 14.3 C 89 % 12.51 C
72 16-05-2022 07:55:00 14.4 C 89 % 12.61 C
73 16-05-2022 08:00:00 14.6 C 88 % 12.64 C
74 16-05-2022 08:05:00 14.7 C 87 % 12.56 C
75 16-05-2022 08:10:00 14.8 C 87 % 12.66 C
Sensor: Nr:Datum:Temp:Feuchte:Taupunkt:
Aussen-T/F 76 16-05-2022 08:15:00 14.9 C 87 % 12.76 C
77 16-05-2022 08:20:00 15.1 C 87 % 12.95 C
78 16-05-2022 08:25:00 15.2 C 87 % 13.05 C
79 16-05-2022 08:30:00 15.4 C 87 % 13.25 C
80 16-05-2022 08:35:00 15.5 C 86 % 13.17 C
81 16-05-2022 08:40:00 15.6 C 85 % 13.09 C
82 16-05-2022 08:45:00 15.8 C 84 % 13.1 C
83 16-05-2022 08:50:00 16 C 84 % 13.3 C
84 16-05-2022 08:55:00 16.2 C 83 % 13.31 C
85 16-05-2022 09:00:00 16.4 C 82 % 13.32 C
86 16-05-2022 09:05:00 16.6 C 81 % 13.33 C
87 16-05-2022 09:10:00 16.7 C 81 % 13.43 C
88 16-05-2022 09:15:00 16.8 C 80 % 13.33 C
89 16-05-2022 09:20:00 16.8 C 81 % 13.52 C
90 16-05-2022 09:25:00 16.9 C 80 % 13.43 C
91 16-05-2022 09:30:00 17 C 81 % 13.72 C
92 16-05-2022 09:35:00 17.1 C 82 % 14 C
93 16-05-2022 09:40:00 17.2 C 82 % 14.1 C
94 16-05-2022 09:45:00 17.3 C 81 % 14.01 C
95 16-05-2022 09:50:00 17.4 C 79 % 13.72 C
96 16-05-2022 09:55:00 17.6 C 79 % 13.92 C
97 16-05-2022 10:00:00 17.6 C 80 % 14.11 C
98 16-05-2022 10:05:00 17.7 C 78 % 13.82 C
99 16-05-2022 10:10:00 17.8 C 81 % 14.5 C
100 16-05-2022 10:15:00 17.9 C 81 % 14.59 C
Sensor: Nr:Datum:Temp:Feuchte:Taupunkt:
Aussen-T/F 101 16-05-2022 10:20:00 18 C 81 % 14.69 C
102 16-05-2022 10:25:00 18.2 C 80 % 14.69 C
103 16-05-2022 10:30:00 18.4 C 80 % 14.89 C
104 16-05-2022 10:35:00 18.9 C 79 % 15.18 C
105 16-05-2022 10:40:00 19.9 C 74 % 15.13 C
106 16-05-2022 10:45:00 20.8 C 70 % 15.13 C
107 16-05-2022 10:50:00 21.7 C 67 % 15.31 C
108 16-05-2022 10:55:00 22.3 C 64 % 15.16 C
109 16-05-2022 11:00:00 22.8 C 64 % 15.64 C
110 16-05-2022 11:05:00 23.1 C 62 % 15.42 C
111 16-05-2022 11:10:00 23.3 C 61 % 15.36 C
112 16-05-2022 11:15:00 23.6 C 63 % 16.14 C
113 16-05-2022 11:20:00 23.8 C 60 % 15.57 C
114 16-05-2022 11:25:00 24.1 C 60 % 15.85 C
115 16-05-2022 11:30:00 24.4 C 61 % 16.39 C
116 16-05-2022 11:35:00 24.7 C 61 % 16.67 C
117 16-05-2022 11:40:00 25 C 59 % 16.43 C
118 16-05-2022 11:45:00 24.8 C 58 % 15.98 C
119 16-05-2022 11:50:00 24.6 C 59 % 16.06 C
120 16-05-2022 11:55:00 24.4 C 60 % 16.13 C
121 16-05-2022 12:00:00 24.2 C 62 % 16.46 C
122 16-05-2022 12:05:00 24.1 C 63 % 16.62 C
123 16-05-2022 12:10:00 24.1 C 65 % 17.11 C
124 16-05-2022 12:15:00 24.3 C 64 % 17.05 C
125 16-05-2022 12:20:00 24.7 C 61 % 16.67 C
Sensor: Nr:Datum:Temp:Feuchte:Taupunkt:
Aussen-T/F 126 16-05-2022 12:25:00 25.1 C 59 % 16.52 C
127 16-05-2022 12:30:00 25.6 C 59 % 16.99 C
128 16-05-2022 12:35:00 25.7 C 57 % 16.54 C
129 16-05-2022 12:40:00 25.8 C 57 % 16.64 C
130 16-05-2022 12:45:00 25.8 C 58 % 16.91 C
131 16-05-2022 12:50:00 25.9 C 60 % 17.54 C
132 16-05-2022 12:55:00 26.3 C 58 % 17.38 C
133 16-05-2022 13:00:00 26.6 C 57 % 17.38 C
134 16-05-2022 13:05:00 26.8 C 57 % 17.57 C
135 16-05-2022 13:10:00 27.2 C 56 % 17.66 C
136 16-05-2022 13:15:00 27.5 C 53 % 17.07 C
137 16-05-2022 13:20:00 27.6 C 53 % 17.16 C
138 16-05-2022 13:25:00 27.7 C 53 % 17.25 C
139 16-05-2022 13:30:00 27.8 C 53 % 17.34 C
140 16-05-2022 13:35:00 27.9 C 52 % 17.13 C
141 16-05-2022 13:40:00 27.9 C 54 % 17.73 C
142 16-05-2022 13:45:00 27.9 C 54 % 17.73 C
143 16-05-2022 13:50:00 28 C 53 % 17.53 C
144 16-05-2022 13:55:00 27.7 C 53 % 17.25 C
145 16-05-2022 14:00:00 27.6 C 54 % 17.45 C
146 16-05-2022 14:05:00 27.6 C 56 % 18.03 C
147 16-05-2022 14:10:00 27.8 C 54 % 17.64 C
148 16-05-2022 14:15:00 27.8 C 52 % 17.04 C
149 16-05-2022 14:20:00 27.7 C 51 % 16.64 C
150 16-05-2022 14:25:00 27.7 C 52 % 16.95 C
Sensor: Nr:Datum:Temp:Feuchte:Taupunkt:
Aussen-T/F 151 16-05-2022 14:30:00 27.6 C 53 % 17.16 C
152 16-05-2022 14:35:00 27.5 C 54 % 17.36 C
153 16-05-2022 14:40:00 27.4 C 54 % 17.27 C
154 16-05-2022 14:45:00 27.3 C 54 % 17.18 C
155 16-05-2022 14:50:00 27.3 C 55 % 17.47 C
156 16-05-2022 14:55:00 27.6 C 53 % 17.16 C
157 16-05-2022 15:00:00 27.7 C 53 % 17.25 C
158 16-05-2022 15:05:00 27.7 C 54 % 17.55 C
159 16-05-2022 15:10:00 27.7 C 53 % 17.25 C
160 16-05-2022 15:15:00 27.7 C 53 % 17.25 C
161 16-05-2022 15:20:00 27.3 C 53 % 16.88 C
162 16-05-2022 15:25:00 25.9 C 56 % 16.45 C
163 16-05-2022 15:30:00 24.6 C 60 % 16.32 C
164 16-05-2022 15:35:00 23.4 C 61 % 15.45 C
165 16-05-2022 15:40:00 23 C 63 % 15.58 C
166 16-05-2022 15:45:00 22.7 C 63 % 15.3 C
167 16-05-2022 15:50:00 22.3 C 64 % 15.16 C
168 16-05-2022 15:55:00 22 C 66 % 15.36 C
169 16-05-2022 16:00:00 21.7 C 69 % 15.77 C
170 16-05-2022 16:05:00 21 C 73 % 15.98 C
171 16-05-2022 16:10:00 20.4 C 75 % 15.82 C
172 16-05-2022 16:15:00 20.2 C 76 % 15.83 C
173 16-05-2022 16:20:00 20 C 76 % 15.64 C
174 16-05-2022 16:25:00 19.8 C 77 % 15.65 C
175 16-05-2022 16:30:00 19.7 C 78 % 15.76 C
Sensor: Nr:Datum:Temp:Feuchte:Taupunkt:
Aussen-T/F 176 16-05-2022 16:35:00 19.7 C 79 % 15.96 C
177 16-05-2022 16:40:00 19.5 C 81 % 16.15 C
178 16-05-2022 16:45:00 19.4 C 82 % 16.25 C
179 16-05-2022 16:50:00 19.3 C 82 % 16.15 C
180 16-05-2022 16:55:00 19.2 C 82 % 16.05 C
181 16-05-2022 17:00:00 19.2 C 82 % 16.05 C
182 16-05-2022 17:05:00 19.2 C 80 % 15.67 C
183 16-05-2022 17:10:00 19.1 C 79 % 15.37 C
184 16-05-2022 17:15:00 19.1 C 79 % 15.37 C
185 16-05-2022 17:20:00 19.1 C 79 % 15.37 C
186 16-05-2022 17:25:00 19.1 C 80 % 15.57 C
187 16-05-2022 17:30:00 19 C 80 % 15.47 C
188 16-05-2022 17:35:00 18.9 C 80 % 15.38 C
189 16-05-2022 17:40:00 18.9 C 81 % 15.57 C

Legende:
   Min
   Max


Maximal/Minimal-Werte vom 16.05.2022 - 16.05.2022

Sensor Min Max Avg
Temp
(Aussen-T/F)
11.8 °C
16-05-2022  03:15:00
28 °C
16-05-2022  13:50:00
18.41 °C
Feuchte
(Aussen-T/F)
51 %
16-05-2022  14:20:00
91 %
16-05-2022  06:10:00
76.17 %
Taupunkt
(Aussen-T/F)
9.64 C
16-05-2022  03:05:00
18.03 C
16-05-2022  14:05:00
13.69 C

Die Daten stammen von einer Davis Vantage Pro 2 Wetter-Station und werden unter Linux mit der Software wview2wettercgi und aufbereitet. Alle Angaben erfolgen ohne Gewähr für ihre Vollständigkeit oder Richtigkeit.
Kontakt: Rainer Krienke krienke@uni-koblenz.de . Meine Webseiten an der Uni Koblenz oder privat.
Version: $Revision: 0.78 $